createdAt,value
2016-12-23T00:00:03.788Z,1023.32
2016-12-23T00:01:03.770Z,1023.41
2016-12-23T00:02:03.750Z,1023.44
2016-12-23T00:03:03.734Z,1023.4
2016-12-23T00:04:03.715Z,1023.45
2016-12-23T00:05:03.695Z,1023.44
2016-12-23T00:06:03.678Z,1023.46
2016-12-23T00:07:03.659Z,1023.46
2016-12-23T00:08:03.640Z,1023.49
2016-12-23T00:09:03.622Z,1023.43
2016-12-23T00:10:03.604Z,1023.39
2016-12-23T00:11:03.584Z,1023.31
2016-12-23T00:12:03.567Z,1023.29
2016-12-23T00:13:03.547Z,1023.29
2016-12-23T00:14:03.531Z,1023.33
2016-12-23T00:15:03.514Z,1023.42
2016-12-23T00:16:03.491Z,1023.51
2016-12-23T00:17:03.474Z,1023.56
2016-12-23T00:18:03.461Z,1023.55
2016-12-23T00:19:03.437Z,1023.56
2016-12-23T00:20:03.417Z,1023.53
2016-12-23T00:21:03.400Z,1023.52
2016-12-23T00:22:03.386Z,1023.47
2016-12-23T00:23:03.362Z,1023.42
2016-12-23T00:24:03.345Z,1023.46
2016-12-23T00:25:03.375Z,1023.55
2016-12-23T00:26:03.306Z,1023.58
2016-12-23T00:27:03.289Z,1023.63
2016-12-23T00:28:03.268Z,1023.66
2016-12-23T00:29:03.250Z,1023.69
2016-12-23T00:30:03.536Z,1023.71
2016-12-23T00:31:03.215Z,1023.74
2016-12-23T00:32:03.194Z,1023.77
2016-12-23T00:33:03.177Z,1023.82
2016-12-23T00:34:03.165Z,1023.8
2016-12-23T00:35:03.138Z,1023.73
2016-12-23T00:36:03.119Z,1023.77
2016-12-23T00:37:03.102Z,1023.69
2016-12-23T00:38:03.082Z,1023.77
2016-12-23T00:39:03.063Z,1023.79
2016-12-23T00:40:03.045Z,1023.76
2016-12-23T00:41:03.054Z,1023.78
2016-12-23T00:42:03.010Z,1023.78
2016-12-23T00:43:02.990Z,1023.84
2016-12-23T00:44:02.972Z,1023.87
2016-12-23T00:45:02.952Z,1023.95
2016-12-23T00:46:02.933Z,1023.99
2016-12-23T00:47:02.916Z,1024.01
2016-12-23T00:48:02.896Z,1024.05
2016-12-23T00:49:02.877Z,1024.01
2016-12-23T00:50:02.860Z,1023.97
2016-12-23T00:51:02.841Z,1023.96
2016-12-23T00:52:02.825Z,1023.92
2016-12-23T00:53:02.803Z,1023.91
2016-12-23T00:54:02.785Z,1023.93
2016-12-23T00:55:02.767Z,1023.93
2016-12-23T00:56:02.750Z,1023.9
2016-12-23T00:57:02.731Z,1023.84
2016-12-23T00:58:02.711Z,1023.81
2016-12-23T00:59:02.692Z,1023.75
2016-12-23T01:00:02.672Z,1023.75
2016-12-23T01:01:02.656Z,1023.69
2016-12-23T01:02:02.635Z,1023.74
2016-12-23T01:03:02.617Z,1023.76
2016-12-23T01:04:02.599Z,1023.75
2016-12-23T01:05:02.581Z,1023.78
2016-12-23T01:06:02.561Z,1023.82
2016-12-23T01:07:02.543Z,1023.8
2016-12-23T01:08:02.526Z,1023.8
2016-12-23T01:09:02.507Z,1023.81
2016-12-23T01:10:02.487Z,1023.78
2016-12-23T01:11:02.520Z,1023.82
2016-12-23T01:12:02.450Z,1023.85
2016-12-23T01:13:02.432Z,1023.9
2016-12-23T01:14:02.414Z,1023.96
2016-12-23T01:15:02.394Z,1024
2016-12-23T01:16:02.375Z,1024.02
2016-12-23T01:17:02.358Z,1023.97
2016-12-23T01:18:02.336Z,1023.97
2016-12-23T01:19:02.319Z,1023.92
2016-12-23T01:20:02.300Z,1023.87
2016-12-23T01:21:02.285Z,1023.86
2016-12-23T01:22:02.262Z,1023.91
2016-12-23T01:23:02.243Z,1023.92
2016-12-23T01:24:02.225Z,1023.97
2016-12-23T01:25:02.205Z,1024.01
2016-12-23T01:26:02.185Z,1024.06
2016-12-23T01:27:02.168Z,1024.05
2016-12-23T01:28:02.148Z,1024.1
2016-12-23T01:29:02.128Z,1024.1
2016-12-23T01:30:02.112Z,1024.13
2016-12-23T01:31:02.091Z,1024.13
2016-12-23T01:32:02.076Z,1024.15
2016-12-23T01:33:02.054Z,1024.1
2016-12-23T01:34:02.035Z,1024.15
2016-12-23T01:35:02.020Z,1024.2
2016-12-23T01:36:01.998Z,1024.2
2016-12-23T01:37:01.978Z,1024.2
2016-12-23T01:38:01.961Z,1024.27
2016-12-23T01:39:01.942Z,1024.3
2016-12-23T01:40:01.922Z,1024.32
2016-12-23T01:41:01.903Z,1024.33
2016-12-23T01:42:01.886Z,1024.37
2016-12-23T01:43:01.866Z,1024.3
2016-12-23T01:44:01.848Z,1024.3
2016-12-23T01:45:01.831Z,1024.31
2016-12-23T01:46:01.815Z,1024.3
2016-12-23T01:47:01.794Z,1024.31
2016-12-23T01:48:01.776Z,1024.28
2016-12-23T01:49:01.756Z,1024.33
2016-12-23T01:50:01.738Z,1024.4
2016-12-23T01:51:01.717Z,1024.41
2016-12-23T01:52:01.698Z,1024.46
2016-12-23T01:53:01.680Z,1024.42
2016-12-23T01:54:01.661Z,1024.46
2016-12-23T01:55:01.646Z,1024.5
2016-12-23T01:56:01.624Z,1024.56
2016-12-23T01:57:01.705Z,1024.55
2016-12-23T01:58:01.587Z,1024.54
2016-12-23T01:59:01.566Z,1024.56
2016-12-23T02:00:01.552Z,1024.55
2016-12-23T02:01:01.534Z,1024.55
2016-12-23T02:02:01.511Z,1024.61
2016-12-23T02:03:01.493Z,1024.6
2016-12-23T02:04:01.478Z,1024.61
2016-12-23T02:05:01.458Z,1024.56
2016-12-23T02:06:01.438Z,1024.54
2016-12-23T02:07:01.418Z,1024.48
2016-12-23T02:08:01.400Z,1024.48
2016-12-23T02:09:01.384Z,1024.49
2016-12-23T02:10:01.361Z,1024.5
2016-12-23T02:11:01.345Z,1024.55
2016-12-23T02:12:01.326Z,1024.57
2016-12-23T02:13:01.307Z,1024.55
2016-12-23T02:14:01.287Z,1024.56
2016-12-23T02:15:01.271Z,1024.57
2016-12-23T02:16:01.250Z,1024.6
2016-12-23T02:17:01.231Z,1024.57
2016-12-23T02:18:01.212Z,1024.6
2016-12-23T02:19:01.197Z,1024.58
2016-12-23T02:20:01.178Z,1024.62
2016-12-23T02:21:01.159Z,1024.57
2016-12-23T02:22:01.137Z,1024.6
2016-12-23T02:23:01.119Z,1024.61
2016-12-23T02:24:01.100Z,1024.59
2016-12-23T02:25:01.082Z,1024.54
2016-12-23T02:26:01.063Z,1024.52
2016-12-23T02:27:01.045Z,1024.5
2016-12-23T02:28:01.025Z,1024.46
2016-12-23T02:29:01.008Z,1024.4
2016-12-23T02:30:01.190Z,1024.45
2016-12-23T02:31:00.970Z,1024.44
2016-12-23T02:32:00.950Z,1024.43
2016-12-23T02:33:00.931Z,1024.45
2016-12-23T02:34:00.913Z,1024.45
2016-12-23T02:35:00.893Z,1024.42
2016-12-23T02:36:00.876Z,1024.44
2016-12-23T02:37:00.855Z,1024.44
2016-12-23T02:38:00.837Z,1024.43
2016-12-23T02:39:00.816Z,1024.42
2016-12-23T02:40:00.797Z,1024.44
2016-12-23T02:41:00.779Z,1024.41
2016-12-23T02:42:00.763Z,1024.43
2016-12-23T02:43:00.741Z,1024.4
2016-12-23T02:44:00.723Z,1024.41
2016-12-23T02:45:00.706Z,1024.39
2016-12-23T02:46:00.683Z,1024.38
2016-12-23T02:47:00.667Z,1024.3
2016-12-23T02:48:00.646Z,1024.33
2016-12-23T02:49:00.632Z,1024.33
2016-12-23T02:50:00.607Z,1024.31
2016-12-23T02:51:00.589Z,1024.3
2016-12-23T02:52:00.572Z,1024.3
2016-12-23T02:53:00.601Z,1024.21
2016-12-23T02:54:00.531Z,1024.27
2016-12-23T02:55:00.511Z,1024.27
2016-12-23T02:56:00.492Z,1024.19
2016-12-23T02:57:00.472Z,1024.25
2016-12-23T02:58:00.454Z,1024.26
2016-12-23T02:59:00.435Z,1024.24
2016-12-23T03:00:00.416Z,1024.21
2016-12-23T03:01:00.396Z,1024.2
2016-12-23T03:02:00.377Z,1024.18
2016-12-23T03:03:00.357Z,1024.14
2016-12-23T03:04:00.337Z,1024.15
2016-12-23T03:05:00.317Z,1024.17
2016-12-23T03:06:00.301Z,1024.11
2016-12-23T03:07:00.279Z,1024.1
2016-12-23T03:08:00.260Z,1024.11
2016-12-23T03:09:00.241Z,1024.07
2016-12-23T03:10:00.223Z,1024.09
2016-12-23T03:11:00.204Z,1024.09
2016-12-23T03:12:00.182Z,1024.12
2016-12-23T03:13:00.162Z,1024.13
2016-12-23T03:14:00.149Z,1024.11
2016-12-23T03:15:00.123Z,1024.1
2016-12-23T03:16:00.104Z,1024.13
2016-12-23T03:17:00.084Z,1024.11
2016-12-23T03:18:00.065Z,1024.1
2016-12-23T03:19:00.045Z,1024.12
2016-12-23T03:20:00.026Z,1024.11
2016-12-23T03:21:00.006Z,1024.16
2016-12-23T03:21:59.986Z,1024.15
2016-12-23T03:22:59.966Z,1024.12
2016-12-23T03:23:59.947Z,1024.12
2016-12-23T03:24:59.929Z,1024.14
2016-12-23T03:25:59.907Z,1024.1
2016-12-23T03:26:59.888Z,1024.16
2016-12-23T03:27:59.869Z,1024.15
2016-12-23T03:28:59.853Z,1024.09
2016-12-23T03:29:59.828Z,1024.07
2016-12-23T03:30:59.809Z,1024.1
2016-12-23T03:31:59.791Z,1024.11
2016-12-23T03:32:59.772Z,1024.17
2016-12-23T03:33:59.752Z,1024.1
2016-12-23T03:34:59.733Z,1024.15
2016-12-23T03:35:59.714Z,1024.15
2016-12-23T03:36:59.692Z,1024.18
2016-12-23T03:37:59.674Z,1024.19
2016-12-23T03:38:59.652Z,1024.18
2016-12-23T03:39:59.632Z,1024.21
2016-12-23T03:40:59.620Z,1024.21
2016-12-23T03:41:59.593Z,1024.21
2016-12-23T03:42:59.574Z,1024.2
2016-12-23T03:43:59.561Z,1024.24
2016-12-23T03:44:59.540Z,1024.19
2016-12-23T03:45:59.516Z,1024.21
2016-12-23T03:46:59.496Z,1024.25
2016-12-23T03:47:59.475Z,1024.19
2016-12-23T03:48:59.456Z,1024.25
2016-12-23T03:49:59.439Z,1024.29
2016-12-23T03:50:59.417Z,1024.29
2016-12-23T03:51:59.397Z,1024.27
2016-12-23T03:52:59.377Z,1024.25
2016-12-23T03:53:59.359Z,1024.25
2016-12-23T03:54:59.342Z,1024.21
2016-12-23T03:55:59.317Z,1024.24
2016-12-23T03:56:59.300Z,1024.23
2016-12-23T03:57:59.279Z,1024.23
2016-12-23T03:58:59.259Z,1024.22
2016-12-23T03:59:59.239Z,1024.23
2016-12-23T04:00:59.219Z,1024.24
2016-12-23T04:01:59.202Z,1024.25
2016-12-23T04:02:59.187Z,1024.28
2016-12-23T04:03:59.173Z,1024.25
2016-12-23T04:04:59.142Z,1024.26
2016-12-23T04:05:59.122Z,1024.22
2016-12-23T04:06:59.102Z,1024.26
2016-12-23T04:07:59.085Z,1024.23
2016-12-23T04:08:59.063Z,1024.24
2016-12-23T04:09:59.043Z,1024.26
2016-12-23T04:10:59.022Z,1024.23
2016-12-23T04:11:59.003Z,1024.26
2016-12-23T04:12:58.983Z,1024.21
2016-12-23T04:13:58.963Z,1024.21
2016-12-23T04:14:58.944Z,1024.16
2016-12-23T04:15:58.923Z,1024.18
2016-12-23T04:16:58.905Z,1024.22
2016-12-23T04:17:58.884Z,1024.2
2016-12-23T04:18:58.867Z,1024.2
2016-12-23T04:19:58.846Z,1024.22
2016-12-23T04:20:58.825Z,1024.24
2016-12-23T04:21:58.805Z,1024.22
2016-12-23T04:22:58.785Z,1024.19
2016-12-23T04:23:58.766Z,1024.24
2016-12-23T04:24:58.745Z,1024.22
2016-12-23T04:25:58.727Z,1024.26
2016-12-23T04:26:58.706Z,1024.24
2016-12-23T04:27:58.687Z,1024.22
2016-12-23T04:28:58.668Z,1024.21
2016-12-23T04:29:58.852Z,1024.19
2016-12-23T04:30:58.635Z,1024.2
2016-12-23T04:31:58.607Z,1024.19
2016-12-23T04:32:58.587Z,1024.18
2016-12-23T04:33:58.570Z,1024.14
2016-12-23T04:34:58.549Z,1024.16
2016-12-23T04:35:58.527Z,1024.18
2016-12-23T04:36:58.511Z,1024.17
2016-12-23T04:37:58.489Z,1024.15
2016-12-23T04:38:58.468Z,1024.19
2016-12-23T04:39:58.448Z,1024.21
2016-12-23T04:40:58.428Z,1024.23
2016-12-23T04:41:58.411Z,1024.23
2016-12-23T04:42:58.389Z,1024.21
2016-12-23T04:43:58.368Z,1024.23
2016-12-23T04:44:58.351Z,1024.14
2016-12-23T04:45:58.332Z,1024.2
2016-12-23T04:46:58.313Z,1024.19
2016-12-23T04:47:58.291Z,1024.21
2016-12-23T04:48:58.272Z,1024.2
2016-12-23T04:49:58.249Z,1024.24
2016-12-23T04:50:58.231Z,1024.21
2016-12-23T04:51:58.211Z,1024.25
2016-12-23T04:52:58.193Z,1024.27
2016-12-23T04:53:58.172Z,1024.27
2016-12-23T04:54:58.154Z,1024.27
2016-12-23T04:55:58.132Z,1024.3
2016-12-23T04:56:58.113Z,1024.26
2016-12-23T04:57:58.092Z,1024.26
2016-12-23T04:58:58.073Z,1024.27
2016-12-23T04:59:58.053Z,1024.31
2016-12-23T05:00:58.034Z,1024.32
2016-12-23T05:01:58.014Z,1024.35
2016-12-23T05:02:57.996Z,1024.33
2016-12-23T05:03:57.974Z,1024.3
2016-12-23T05:04:57.954Z,1024.32
2016-12-23T05:05:57.934Z,1024.31
2016-12-23T05:06:57.916Z,1024.32
2016-12-23T05:07:57.896Z,1024.29
2016-12-23T05:08:57.882Z,1024.27
2016-12-23T05:09:57.858Z,1024.27
2016-12-23T05:10:57.838Z,1024.29
2016-12-23T05:11:57.818Z,1024.26
2016-12-23T05:12:57.798Z,1024.19
2016-12-23T05:13:57.780Z,1024.19
2016-12-23T05:14:57.760Z,1024.16
2016-12-23T05:15:57.741Z,1024.14
2016-12-23T05:16:57.720Z,1024.15
2016-12-23T05:17:57.702Z,1024.16
2016-12-23T05:18:57.681Z,1024.17
2016-12-23T05:19:57.662Z,1024.13
2016-12-23T05:20:57.643Z,1024.12
2016-12-23T05:21:57.623Z,1024.1
2016-12-23T05:22:57.603Z,1024.12
2016-12-23T05:23:57.584Z,1024.17
2016-12-23T05:24:57.564Z,1024.15
2016-12-23T05:25:57.545Z,1024.12
2016-12-23T05:26:57.524Z,1024.18
2016-12-23T05:27:57.506Z,1024.2
2016-12-23T05:28:57.486Z,1024.15
2016-12-23T05:29:57.472Z,1024.15
2016-12-23T05:30:57.475Z,1024.12
2016-12-23T05:31:57.427Z,1024.18
2016-12-23T05:32:57.409Z,1024.12
2016-12-23T05:33:57.388Z,1024.17
2016-12-23T05:34:57.368Z,1024.2
2016-12-23T05:35:57.349Z,1024.2
2016-12-23T05:36:57.330Z,1024.22
2016-12-23T05:37:57.309Z,1024.28
2016-12-23T05:38:57.292Z,1024.24
2016-12-23T05:39:57.270Z,1024.25
2016-12-23T05:40:57.252Z,1024.24
2016-12-23T05:41:57.231Z,1024.29
2016-12-23T05:42:57.211Z,1024.29
2016-12-23T05:43:57.194Z,1024.32
2016-12-23T05:44:57.174Z,1024.33
2016-12-23T05:45:57.154Z,1024.35
2016-12-23T05:46:57.135Z,1024.31
2016-12-23T05:47:57.118Z,1024.34
2016-12-23T05:48:57.098Z,1024.36
2016-12-23T05:49:57.075Z,1024.38
2016-12-23T05:50:57.057Z,1024.37
2016-12-23T05:51:57.037Z,1024.39
2016-12-23T05:52:57.021Z,1024.34
2016-12-23T05:53:56.998Z,1024.29
2016-12-23T05:54:56.978Z,1024.29
2016-12-23T05:55:56.960Z,1024.34
2016-12-23T05:56:56.939Z,1024.33
2016-12-23T05:57:56.925Z,1024.29
2016-12-23T05:58:56.903Z,1024.3
2016-12-23T05:59:56.881Z,1024.28
2016-12-23T06:00:56.863Z,1024.32
2016-12-23T06:01:56.866Z,1024.3
2016-12-23T06:02:56.823Z,1024.33
2016-12-23T06:03:56.803Z,1024.32
2016-12-23T06:04:56.784Z,1024.3
2016-12-23T06:05:56.763Z,1024.33
2016-12-23T06:06:56.742Z,1024.34
2016-12-23T06:07:56.724Z,1024.36
2016-12-23T06:08:56.704Z,1024.41
2016-12-23T06:09:56.688Z,1024.35
2016-12-23T06:10:56.667Z,1024.34
2016-12-23T06:11:56.645Z,1024.32
2016-12-23T06:12:56.628Z,1024.4
2016-12-23T06:13:56.607Z,1024.41
2016-12-23T06:14:56.587Z,1024.43
2016-12-23T06:15:56.568Z,1024.44
2016-12-23T06:16:56.548Z,1024.44
2016-12-23T06:17:56.530Z,1024.44
2016-12-23T06:18:56.508Z,1024.41
2016-12-23T06:19:56.488Z,1024.38
2016-12-23T06:20:56.471Z,1024.35
2016-12-23T06:21:56.453Z,1024.39
2016-12-23T06:22:56.432Z,1024.32
2016-12-23T06:23:56.410Z,1024.3
2016-12-23T06:24:56.390Z,1024.27
2016-12-23T06:25:56.371Z,1024.26
2016-12-23T06:26:56.424Z,1024.32
2016-12-23T06:27:56.335Z,1024.34
2016-12-23T06:28:56.311Z,1024.37
2016-12-23T06:29:56.292Z,1024.35
2016-12-23T06:30:56.274Z,1024.34
2016-12-23T06:31:56.253Z,1024.34
2016-12-23T06:32:56.233Z,1024.38
2016-12-23T06:33:56.214Z,1024.45
2016-12-23T06:34:56.194Z,1024.47
2016-12-23T06:35:56.177Z,1024.46
2016-12-23T06:36:56.155Z,1024.48
2016-12-23T06:37:56.137Z,1024.49
2016-12-23T06:38:56.117Z,1024.52
2016-12-23T06:39:56.100Z,1024.48
2016-12-23T06:40:56.077Z,1024.45
2016-12-23T06:41:56.060Z,1024.45
2016-12-23T06:42:56.047Z,1024.42
2016-12-23T06:43:56.018Z,1024.4
2016-12-23T06:44:56.000Z,1024.42
2016-12-23T06:45:55.981Z,1024.45
2016-12-23T06:46:55.964Z,1024.48
2016-12-23T06:47:55.940Z,1024.46
2016-12-23T06:48:55.921Z,1024.41
2016-12-23T06:49:55.903Z,1024.42
2016-12-23T06:50:55.882Z,1024.37
2016-12-23T06:51:55.864Z,1024.37
2016-12-23T06:52:55.844Z,1024.37
2016-12-23T06:53:55.825Z,1024.35
2016-12-23T06:54:55.805Z,1024.34
2016-12-23T06:55:55.787Z,1024.33
2016-12-23T06:56:55.767Z,1024.41
2016-12-23T06:57:55.746Z,1024.49
2016-12-23T06:58:55.735Z,1024.49
2016-12-23T06:59:55.708Z,1024.57
2016-12-23T07:00:55.688Z,1024.52
2016-12-23T07:01:55.668Z,1024.53
2016-12-23T07:02:55.650Z,1024.56
2016-12-23T07:03:55.630Z,1024.58
2016-12-23T07:04:55.609Z,1024.65
2016-12-23T07:05:55.593Z,1024.65
2016-12-23T07:06:55.571Z,1024.71
2016-12-23T07:07:55.551Z,1024.67
2016-12-23T07:08:55.530Z,1024.65
2016-12-23T07:09:55.511Z,1024.63
2016-12-23T07:10:55.492Z,1024.6
2016-12-23T07:11:55.472Z,1024.61
2016-12-23T07:12:55.453Z,1024.61
2016-12-23T07:13:55.435Z,1024.63
2016-12-23T07:14:55.414Z,1024.56
2016-12-23T07:15:55.394Z,1024.58
2016-12-23T07:16:55.379Z,1024.61
2016-12-23T07:17:55.358Z,1024.63
2016-12-23T07:18:55.335Z,1024.63
2016-12-23T07:19:55.315Z,1024.64
2016-12-23T07:20:55.297Z,1024.65
2016-12-23T07:21:55.276Z,1024.62
2016-12-23T07:22:55.257Z,1024.65
2016-12-23T07:23:55.237Z,1024.66
2016-12-23T07:24:55.218Z,1024.67
2016-12-23T07:25:55.200Z,1024.66
2016-12-23T07:26:55.179Z,1024.67
2016-12-23T07:27:55.192Z,1024.68
2016-12-23T07:28:55.144Z,1024.71
2016-12-23T07:29:55.127Z,1024.68
2016-12-23T07:30:55.105Z,1024.7
2016-12-23T07:31:55.083Z,1024.67
2016-12-23T07:32:55.062Z,1024.67
2016-12-23T07:33:55.042Z,1024.66
2016-12-23T07:34:55.021Z,1024.68
2016-12-23T07:35:55.004Z,1024.67
2016-12-23T07:36:54.985Z,1024.66
2016-12-23T07:37:54.962Z,1024.65
2016-12-23T07:38:54.943Z,1024.69
2016-12-23T07:39:54.925Z,1024.73
2016-12-23T07:40:54.904Z,1024.79
2016-12-23T07:41:54.884Z,1024.8
2016-12-23T07:42:54.864Z,1024.81
2016-12-23T07:43:54.846Z,1024.83
2016-12-23T07:44:54.825Z,1024.85
2016-12-23T07:45:54.805Z,1024.84
2016-12-23T07:46:54.785Z,1024.84
2016-12-23T07:47:54.767Z,1024.87
2016-12-23T07:48:54.746Z,1024.88
2016-12-23T07:49:54.727Z,1024.89
2016-12-23T07:50:54.711Z,1024.85
2016-12-23T07:51:54.692Z,1024.87
2016-12-23T07:52:54.670Z,1024.87
2016-12-23T07:53:54.648Z,1024.87
2016-12-23T07:54:54.630Z,1024.86
2016-12-23T07:55:54.614Z,1024.84
2016-12-23T07:56:54.589Z,1024.92
2016-12-23T07:57:54.570Z,1024.88
2016-12-23T07:58:54.552Z,1024.92
2016-12-23T07:59:54.536Z,1024.96
2016-12-23T08:00:54.514Z,1024.97
2016-12-23T08:01:54.495Z,1024.97
2016-12-23T08:02:54.473Z,1024.98
2016-12-23T08:03:54.453Z,1025.01
2016-12-23T08:04:54.436Z,1025.05
2016-12-23T08:05:54.416Z,1025.03
2016-12-23T08:06:54.396Z,1025.12
2016-12-23T08:07:54.427Z,1025.11
2016-12-23T08:08:54.357Z,1025.11
2016-12-23T08:09:54.339Z,1025.15
2016-12-23T08:10:54.317Z,1025.15
2016-12-23T08:11:54.300Z,1025.08
2016-12-23T08:12:54.280Z,1025.11
2016-12-23T08:13:54.261Z,1025.14
2016-12-23T08:14:54.241Z,1025.08
2016-12-23T08:15:54.223Z,1025.09
2016-12-23T08:16:54.204Z,1025.1
2016-12-23T08:17:54.239Z,1025.11
2016-12-23T08:18:54.165Z,1025.15
2016-12-23T08:19:54.146Z,1025.18
2016-12-23T08:20:54.133Z,1025.12
2016-12-23T08:21:54.108Z,1025.2
2016-12-23T08:22:54.090Z,1025.1
2016-12-23T08:23:54.070Z,1025.11
2016-12-23T08:24:54.053Z,1025.08
2016-12-23T08:25:54.031Z,1025.13
2016-12-23T08:26:54.012Z,1025.13
2016-12-23T08:27:53.992Z,1025.11
2016-12-23T08:28:53.973Z,1025.12
2016-12-23T08:29:53.957Z,1025.14
2016-12-23T08:30:53.942Z,1025.17
2016-12-23T08:31:53.918Z,1025.1
2016-12-23T08:32:53.899Z,1025.15
2016-12-23T08:33:53.877Z,1025.12
2016-12-23T08:34:53.859Z,1025.07
2016-12-23T08:35:53.840Z,1025.09
2016-12-23T08:36:53.821Z,1025.1
2016-12-23T08:37:53.802Z,1025.12
2016-12-23T08:38:53.783Z,1025.11
2016-12-23T08:39:53.765Z,1025.14
2016-12-23T08:40:53.745Z,1025.09
2016-12-23T08:41:53.727Z,1025.14
2016-12-23T08:42:53.708Z,1025.09
2016-12-23T08:43:53.688Z,1025.08
2016-12-23T08:44:53.671Z,1025.12
2016-12-23T08:45:53.652Z,1025.14
2016-12-23T08:46:53.634Z,1025.09
2016-12-23T08:47:53.613Z,1025.11
2016-12-23T08:48:53.594Z,1025.13
2016-12-23T08:49:53.582Z,1025.15
2016-12-23T08:50:53.565Z,1025.11
2016-12-23T08:51:53.539Z,1025.1
2016-12-23T08:52:53.520Z,1025.09
2016-12-23T08:53:53.500Z,1025.15
2016-12-23T08:54:53.484Z,1025.11
2016-12-23T08:55:53.464Z,1025.18
2016-12-23T08:56:53.444Z,1025.16
2016-12-23T08:57:53.426Z,1025.19
2016-12-23T08:58:53.406Z,1025.19
2016-12-23T08:59:53.389Z,1025.24
2016-12-23T09:00:53.372Z,1025.24
2016-12-23T09:01:53.356Z,1025.25
2016-12-23T09:02:53.335Z,1025.27
2016-12-23T09:03:53.316Z,1025.23
2016-12-23T09:04:53.298Z,1025.26
2016-12-23T09:05:53.280Z,1025.22
2016-12-23T09:06:53.262Z,1025.2
2016-12-23T09:07:53.242Z,1025.2
2016-12-23T09:08:53.223Z,1025.19
2016-12-23T09:09:53.203Z,1025.17
2016-12-23T09:10:53.185Z,1025.19
2016-12-23T09:11:53.168Z,1025.15
2016-12-23T09:12:53.147Z,1025.18
2016-12-23T09:13:53.132Z,1025.2
2016-12-23T09:14:53.114Z,1025.2
2016-12-23T09:15:53.095Z,1025.19
2016-12-23T09:16:53.074Z,1025.18
2016-12-23T09:17:53.057Z,1025.19
2016-12-23T09:18:53.039Z,1025.1
2016-12-23T09:19:53.021Z,1025.13
2016-12-23T09:20:53.002Z,1025.14
2016-12-23T09:21:52.986Z,1025.1
2016-12-23T09:22:52.967Z,1025.1
2016-12-23T09:23:52.949Z,1025.08
2016-12-23T09:24:52.929Z,1025.07
2016-12-23T09:25:52.913Z,1025.11
2016-12-23T09:26:52.898Z,1025.13
2016-12-23T09:27:52.876Z,1025.2
2016-12-23T09:28:52.857Z,1025.18
2016-12-23T09:29:52.839Z,1025.12
2016-12-23T09:30:52.823Z,1025.18
2016-12-23T09:31:52.803Z,1025.18
2016-12-23T09:32:52.785Z,1025.18
2016-12-23T09:33:52.767Z,1025.19
2016-12-23T09:34:52.750Z,1025.19
2016-12-23T09:35:52.730Z,1025.13
2016-12-23T09:36:52.714Z,1025.14
2016-12-23T09:37:52.697Z,1025.13
2016-12-23T09:38:52.676Z,1025.21
2016-12-23T09:39:52.659Z,1025.22
2016-12-23T09:40:52.642Z,1025.16
2016-12-23T09:41:52.625Z,1025.18
2016-12-23T09:42:52.606Z,1025.13
2016-12-23T09:43:52.588Z,1025.08
2016-12-23T09:44:52.569Z,1025.08
2016-12-23T09:45:52.553Z,1025.08
2016-12-23T09:46:52.534Z,1025.05
2016-12-23T09:47:52.516Z,1025.06
2016-12-23T09:48:52.498Z,1025.04
2016-12-23T09:49:52.481Z,1025.04
2016-12-23T09:50:52.466Z,1025.11
2016-12-23T09:51:52.446Z,1025.08
2016-12-23T09:52:52.429Z,1025.11
2016-12-23T09:53:52.412Z,1025.13
2016-12-23T09:54:52.395Z,1025.15
2016-12-23T09:55:52.375Z,1025.11
2016-12-23T09:56:52.357Z,1025.11
2016-12-23T09:57:52.340Z,1025.06
2016-12-23T09:58:52.323Z,1025.05
2016-12-23T09:59:52.306Z,1025.02
2016-12-23T10:00:52.288Z,1024.99
2016-12-23T10:01:52.274Z,1025.01
2016-12-23T10:02:52.254Z,1024.97
2016-12-23T10:03:52.242Z,1024.96
2016-12-23T10:04:52.220Z,1025.01
2016-12-23T10:05:52.204Z,1025.01
2016-12-23T10:06:52.187Z,1024.98
2016-12-23T10:07:52.168Z,1024.96
2016-12-23T10:08:52.152Z,1024.93
2016-12-23T10:09:52.136Z,1024.92
2016-12-23T10:10:52.147Z,1024.93
2016-12-23T10:11:52.102Z,1024.95
2016-12-23T10:12:52.086Z,1024.99
2016-12-23T10:13:52.069Z,1025
2016-12-23T10:14:52.056Z,1024.91
2016-12-23T10:15:52.036Z,1024.94
2016-12-23T10:16:52.020Z,1024.97
2016-12-23T10:17:52.004Z,1024.94
2016-12-23T10:18:51.987Z,1024.9
2016-12-23T10:19:51.969Z,1024.9
2016-12-23T10:20:51.953Z,1024.93
2016-12-23T10:21:51.938Z,1024.88
2016-12-23T10:22:51.920Z,1024.89
2016-12-23T10:23:51.905Z,1024.89
2016-12-23T10:24:51.888Z,1024.95
2016-12-23T10:25:51.873Z,1024.94
2016-12-23T10:26:51.859Z,1024.91
2016-12-23T10:27:51.840Z,1024.91
2016-12-23T10:28:51.825Z,1024.9
2016-12-23T10:29:51.810Z,1024.93
2016-12-23T10:30:51.997Z,1024.93
2016-12-23T10:31:51.780Z,1024.99
2016-12-23T10:32:51.764Z,1024.97
2016-12-23T10:33:51.748Z,1024.93
2016-12-23T10:34:51.732Z,1024.96
2016-12-23T10:35:51.718Z,1024.98
2016-12-23T10:36:51.704Z,1024.95
2016-12-23T10:37:51.687Z,1024.97
2016-12-23T10:38:51.672Z,1024.99
2016-12-23T10:39:51.657Z,1024.94
2016-12-23T10:40:51.640Z,1024.97
2016-12-23T10:41:51.626Z,1024.99
2016-12-23T10:42:51.612Z,1024.92
2016-12-23T10:43:51.595Z,1024.91
2016-12-23T10:44:51.581Z,1024.87
2016-12-23T10:45:51.563Z,1024.89
2016-12-23T10:46:51.548Z,1024.89
2016-12-23T10:47:51.532Z,1024.94
2016-12-23T10:48:51.520Z,1025
2016-12-23T10:49:51.501Z,1024.96
2016-12-23T10:50:51.486Z,1024.92
2016-12-23T10:51:51.470Z,1024.91
2016-12-23T10:52:51.457Z,1024.95
2016-12-23T10:53:51.442Z,1024.9
2016-12-23T10:54:51.424Z,1024.84
2016-12-23T10:55:51.408Z,1024.88
2016-12-23T10:56:51.395Z,1024.84
2016-12-23T10:57:51.379Z,1024.87
2016-12-23T10:58:51.364Z,1024.92
2016-12-23T10:59:51.350Z,1024.84
2016-12-23T11:00:51.335Z,1024.87
2016-12-23T11:01:51.320Z,1024.84
2016-12-23T11:02:51.305Z,1024.78
2016-12-23T11:03:51.289Z,1024.71
2016-12-23T11:04:51.277Z,1024.72
2016-12-23T11:05:51.262Z,1024.64
2016-12-23T11:06:51.247Z,1024.62
2016-12-23T11:07:51.231Z,1024.6
2016-12-23T11:08:51.219Z,1024.6
2016-12-23T11:09:51.204Z,1024.57
2016-12-23T11:10:51.192Z,1024.61
2016-12-23T11:11:51.174Z,1024.52
2016-12-23T11:12:51.169Z,1024.54
2016-12-23T11:13:51.146Z,1024.47
2016-12-23T11:14:51.131Z,1024.48
2016-12-23T11:15:51.117Z,1024.47
2016-12-23T11:16:51.108Z,1024.43
2016-12-23T11:17:51.087Z,1024.44
2016-12-23T11:18:51.071Z,1024.4
2016-12-23T11:19:51.057Z,1024.38
2016-12-23T11:20:51.043Z,1024.35
2016-12-23T11:21:51.029Z,1024.26
2016-12-23T11:22:51.016Z,1024.37
2016-12-23T11:23:51.002Z,1024.24
2016-12-23T11:24:50.982Z,1024.23
2016-12-23T11:25:50.967Z,1024.23
2016-12-23T11:26:50.958Z,1024.19
2016-12-23T11:27:50.937Z,1024.17
2016-12-23T11:28:50.922Z,1024.16
2016-12-23T11:29:50.906Z,1024.16
2016-12-23T11:30:50.894Z,1024.07
2016-12-23T11:31:50.892Z,1024.11
2016-12-23T11:32:50.871Z,1024.12
2016-12-23T11:33:50.898Z,1024.1
2016-12-23T11:34:50.833Z,1024.05
2016-12-23T11:35:50.875Z,1024.05
2016-12-23T11:36:50.833Z,1024.02
2016-12-23T11:37:50.785Z,1024.05
2016-12-23T11:38:50.800Z,1024
2016-12-23T11:39:50.777Z,1024.02
2016-12-23T11:40:50.741Z,1023.98
2016-12-23T11:41:50.727Z,1023.98
2016-12-23T11:42:50.710Z,1023.94
2016-12-23T11:43:50.695Z,1023.96
2016-12-23T11:44:50.680Z,1024
2016-12-23T11:45:50.668Z,1023.94
2016-12-23T11:46:50.651Z,1023.93
2016-12-23T11:47:50.637Z,1023.9
2016-12-23T11:48:50.621Z,1023.88
2016-12-23T11:49:50.607Z,1023.87
2016-12-23T11:50:50.591Z,1023.87
2016-12-23T11:51:50.576Z,1023.83
2016-12-23T11:52:50.561Z,1023.82
2016-12-23T11:53:50.546Z,1023.8
2016-12-23T11:54:50.533Z,1023.76
2016-12-23T11:55:50.516Z,1023.77
2016-12-23T11:56:50.503Z,1023.74
2016-12-23T11:57:50.486Z,1023.77
2016-12-23T11:58:50.474Z,1023.81
2016-12-23T11:59:50.460Z,1023.69
2016-12-23T12:00:50.443Z,1023.76
2016-12-23T12:01:50.428Z,1023.7
2016-12-23T12:02:50.413Z,1023.67
2016-12-23T12:03:50.398Z,1023.71
2016-12-23T12:04:50.384Z,1023.66
2016-12-23T12:05:50.373Z,1023.66
2016-12-23T12:06:50.357Z,1023.63
2016-12-23T12:07:50.340Z,1023.59